sensor_id;sensor_type;location;lat;lon;timestamp;P1;durP1;ratioP1;P2;durP2;ratioP2
48667;SDS011;34453;52.198;5.004;2023-05-15T00:00:09;32.65;;;24.83;;
48667;SDS011;34453;52.198;5.004;2023-05-15T00:02:35;40.88;;;27.42;;
48667;SDS011;34453;52.198;5.004;2023-05-15T00:05:03;36.30;;;26.70;;
48667;SDS011;34453;52.198;5.004;2023-05-15T00:07:30;34.58;;;27.30;;
48667;SDS011;34453;52.198;5.004;2023-05-15T00:09:58;40.15;;;25.50;;
48667;SDS011;34453;52.198;5.004;2023-05-15T00:12:27;38.65;;;26.45;;
48667;SDS011;34453;52.198;5.004;2023-05-15T00:14:53;44.80;;;26.88;;
48667;SDS011;34453;52.198;5.004;2023-05-15T00:17:18;39.67;;;25.83;;
48667;SDS011;34453;52.198;5.004;2023-05-15T00:19:44;34.95;;;25.23;;
48667;SDS011;34453;52.198;5.004;2023-05-15T00:22:09;42.70;;;28.85;;
48667;SDS011;34453;52.198;5.004;2023-05-15T00:24:35;42.33;;;28.15;;
48667;SDS011;34453;52.198;5.004;2023-05-15T00:27:00;41.55;;;28.13;;
48667;SDS011;34453;52.198;5.004;2023-05-15T00:29:26;43.72;;;28.45;;
48667;SDS011;34453;52.198;5.004;2023-05-15T00:31:52;41.97;;;27.55;;
48667;SDS011;34453;52.198;5.004;2023-05-15T00:34:17;48.75;;;28.38;;
48667;SDS011;34453;52.198;5.004;2023-05-15T00:36:43;52.15;;;31.00;;
48667;SDS011;34453;52.198;5.004;2023-05-15T00:39:08;45.03;;;29.98;;
48667;SDS011;34453;52.198;5.004;2023-05-15T00:41:34;43.15;;;29.83;;
48667;SDS011;34453;52.198;5.004;2023-05-15T00:44:01;42.13;;;27.40;;
48667;SDS011;34453;52.198;5.004;2023-05-15T00:46:27;47.80;;;29.92;;
48667;SDS011;34453;52.198;5.004;2023-05-15T00:48:56;46.15;;;28.60;;
48667;SDS011;34453;52.198;5.004;2023-05-15T00:51:22;40.15;;;28.98;;
48667;SDS011;34453;52.198;5.004;2023-05-15T00:53:49;46.58;;;30.38;;
48667;SDS011;34453;52.198;5.004;2023-05-15T00:56:17;40.83;;;29.33;;
48667;SDS011;34453;52.198;5.004;2023-05-15T00:58:44;41.47;;;28.73;;
48667;SDS011;34453;52.198;5.004;2023-05-15T01:01:15;57.40;;;32.58;;
48667;SDS011;34453;52.198;5.004;2023-05-15T01:03:44;42.95;;;28.10;;
48667;SDS011;34453;52.198;5.004;2023-05-15T01:06:10;36.35;;;26.42;;
48667;SDS011;34453;52.198;5.004;2023-05-15T01:11:09;50.25;;;27.73;;
48667;SDS011;34453;52.198;5.004;2023-05-15T01:13:37;45.58;;;29.25;;
48667;SDS011;34453;52.198;5.004;2023-05-15T01:16:03;40.63;;;28.40;;
48667;SDS011;34453;52.198;5.004;2023-05-15T01:18:28;41.47;;;28.05;;
48667;SDS011;34453;52.198;5.004;2023-05-15T01:29:11;46.25;;;28.80;;
48667;SDS011;34453;52.198;5.004;2023-05-15T01:31:41;40.95;;;27.77;;
48667;SDS011;34453;52.198;5.004;2023-05-15T01:34:11;41.88;;;27.92;;
48667;SDS011;34453;52.198;5.004;2023-05-15T01:36:41;42.92;;;28.15;;
48667;SDS011;34453;52.198;5.004;2023-05-15T01:39:12;38.38;;;25.70;;
48667;SDS011;34453;52.198;5.004;2023-05-15T01:44:25;44.75;;;27.20;;
48667;SDS011;34453;52.198;5.004;2023-05-15T01:46:54;40.72;;;25.65;;
48667;SDS011;34453;52.198;5.004;2023-05-15T01:49:23;41.42;;;27.05;;
48667;SDS011;34453;52.198;5.004;2023-05-15T01:51:54;41.67;;;27.15;;
48667;SDS011;34453;52.198;5.004;2023-05-15T01:54:27;40.03;;;25.02;;
48667;SDS011;34453;52.198;5.004;2023-05-15T01:56:54;40.42;;;25.92;;
48667;SDS011;34453;52.198;5.004;2023-05-15T01:59:21;47.85;;;26.45;;
48667;SDS011;34453;52.198;5.004;2023-05-15T02:01:49;40.17;;;25.80;;
48667;SDS011;34453;52.198;5.004;2023-05-15T02:04:15;47.10;;;27.13;;
48667;SDS011;34453;52.198;5.004;2023-05-15T02:06:41;43.08;;;28.15;;
48667;SDS011;34453;52.198;5.004;2023-05-15T02:09:08;44.10;;;25.77;;
48667;SDS011;34453;52.198;5.004;2023-05-15T02:11:34;45.75;;;28.80;;
48667;SDS011;34453;52.198;5.004;2023-05-15T02:14:01;52.53;;;30.08;;
48667;SDS011;34453;52.198;5.004;2023-05-15T02:16:28;51.15;;;30.58;;
48667;SDS011;34453;52.198;5.004;2023-05-15T02:18:53;52.25;;;30.23;;
48667;SDS011;34453;52.198;5.004;2023-05-15T02:21:19;43.53;;;28.75;;
48667;SDS011;34453;52.198;5.004;2023-05-15T02:23:44;52.53;;;29.58;;
48667;SDS011;34453;52.198;5.004;2023-05-15T02:28:58;44.90;;;28.05;;
48667;SDS011;34453;52.198;5.004;2023-05-15T02:35:18;42.63;;;28.10;;
48667;SDS011;34453;52.198;5.004;2023-05-15T02:37:36;45.72;;;28.83;;
48667;SDS011;34453;52.198;5.004;2023-05-15T02:40:05;40.45;;;27.30;;
48667;SDS011;34453;52.198;5.004;2023-05-15T02:42:34;43.00;;;25.92;;
48667;SDS011;34453;52.198;5.004;2023-05-15T02:45:00;41.00;;;25.70;;
48667;SDS011;34453;52.198;5.004;2023-05-15T02:47:27;36.92;;;24.98;;
48667;SDS011;34453;52.198;5.004;2023-05-15T02:49:54;38.08;;;24.30;;
48667;SDS011;34453;52.198;5.004;2023-05-15T02:52:24;38.03;;;25.17;;
48667;SDS011;34453;52.198;5.004;2023-05-15T02:54:49;36.30;;;25.00;;
48667;SDS011;34453;52.198;5.004;2023-05-15T02:57:15;33.58;;;23.73;;
48667;SDS011;34453;52.198;5.004;2023-05-15T02:59:40;41.75;;;25.80;;
48667;SDS011;34453;52.198;5.004;2023-05-15T03:02:06;30.33;;;22.90;;
48667;SDS011;34453;52.198;5.004;2023-05-15T03:04:32;33.88;;;23.27;;
48667;SDS011;34453;52.198;5.004;2023-05-15T03:06:57;32.63;;;23.20;;
48667;SDS011;34453;52.198;5.004;2023-05-15T03:09:22;36.05;;;23.85;;
48667;SDS011;34453;52.198;5.004;2023-05-15T03:11:49;31.35;;;22.20;;
48667;SDS011;34453;52.198;5.004;2023-05-15T03:14:14;28.98;;;21.10;;
48667;SDS011;34453;52.198;5.004;2023-05-15T03:16:40;31.85;;;21.77;;
48667;SDS011;34453;52.198;5.004;2023-05-15T03:19:06;35.80;;;21.48;;
48667;SDS011;34453;52.198;5.004;2023-05-15T03:21:31;28.98;;;22.63;;
48667;SDS011;34453;52.198;5.004;2023-05-15T03:23:59;38.25;;;24.73;;
48667;SDS011;34453;52.198;5.004;2023-05-15T03:26:25;36.95;;;25.13;;
48667;SDS011;34453;52.198;5.004;2023-05-15T03:28:50;36.83;;;25.67;;
48667;SDS011;34453;52.198;5.004;2023-05-15T03:31:16;34.80;;;24.27;;
48667;SDS011;34453;52.198;5.004;2023-05-15T03:33:41;31.30;;;23.33;;
48667;SDS011;34453;52.198;5.004;2023-05-15T03:36:09;30.13;;;23.27;;
48667;SDS011;34453;52.198;5.004;2023-05-15T03:38:35;28.17;;;22.75;;
48667;SDS011;34453;52.198;5.004;2023-05-15T03:41:00;29.42;;;24.35;;
48667;SDS011;34453;52.198;5.004;2023-05-15T03:43:26;31.85;;;23.10;;
48667;SDS011;34453;52.198;5.004;2023-05-15T03:45:51;31.33;;;24.35;;
48667;SDS011;34453;52.198;5.004;2023-05-15T03:48:17;33.40;;;22.33;;
48667;SDS011;34453;52.198;5.004;2023-05-15T03:50:43;35.42;;;22.83;;
48667;SDS011;34453;52.198;5.004;2023-05-15T03:53:08;26.00;;;22.20;;
48667;SDS011;34453;52.198;5.004;2023-05-15T03:55:34;22.63;;;19.00;;
48667;SDS011;34453;52.198;5.004;2023-05-15T03:58:00;25.80;;;18.45;;
48667;SDS011;34453;52.198;5.004;2023-05-15T04:00:25;19.92;;;17.65;;
48667;SDS011;34453;52.198;5.004;2023-05-15T04:02:51;24.52;;;18.98;;
48667;SDS011;34453;52.198;5.004;2023-05-15T04:05:16;25.63;;;20.38;;
48667;SDS011;34453;52.198;5.004;2023-05-15T04:07:43;23.45;;;19.55;;
48667;SDS011;34453;52.198;5.004;2023-05-15T04:10:09;21.65;;;18.13;;
48667;SDS011;34453;52.198;5.004;2023-05-15T04:12:35;25.45;;;20.15;;
48667;SDS011;34453;52.198;5.004;2023-05-15T04:17:46;18.98;;;17.00;;
48667;SDS011;34453;52.198;5.004;2023-05-15T04:20:14;27.48;;;18.95;;
48667;SDS011;34453;52.198;5.004;2023-05-15T04:22:41;32.25;;;21.15;;
48667;SDS011;34453;52.198;5.004;2023-05-15T04:25:07;29.52;;;20.88;;
48667;SDS011;34453;52.198;5.004;2023-05-15T04:27:35;28.30;;;24.02;;
48667;SDS011;34453;52.198;5.004;2023-05-15T04:30:01;31.13;;;24.08;;
48667;SDS011;34453;52.198;5.004;2023-05-15T04:32:28;32.83;;;25.05;;
48667;SDS011;34453;52.198;5.004;2023-05-15T04:34:55;31.98;;;24.15;;
48667;SDS011;34453;52.198;5.004;2023-05-15T04:37:23;27.17;;;23.98;;
48667;SDS011;34453;52.198;5.004;2023-05-15T04:39:48;29.35;;;23.00;;
48667;SDS011;34453;52.198;5.004;2023-05-15T04:42:14;28.58;;;23.55;;
48667;SDS011;34453;52.198;5.004;2023-05-15T04:44:39;30.45;;;24.67;;
48667;SDS011;34453;52.198;5.004;2023-05-15T04:47:05;37.85;;;25.58;;
48667;SDS011;34453;52.198;5.004;2023-05-15T04:49:30;30.20;;;24.67;;
48667;SDS011;34453;52.198;5.004;2023-05-15T04:51:56;27.63;;;23.90;;
48667;SDS011;34453;52.198;5.004;2023-05-15T04:54:21;29.15;;;24.67;;
48667;SDS011;34453;52.198;5.004;2023-05-15T04:56:46;27.02;;;23.42;;
48667;SDS011;34453;52.198;5.004;2023-05-15T04:59:12;28.58;;;24.05;;
48667;SDS011;34453;52.198;5.004;2023-05-15T05:01:38;29.67;;;21.27;;
48667;SDS011;34453;52.198;5.004;2023-05-15T05:04:03;24.17;;;21.15;;
48667;SDS011;34453;52.198;5.004;2023-05-15T05:06:29;32.15;;;21.23;;
48667;SDS011;34453;52.198;5.004;2023-05-15T05:08:55;21.52;;;19.17;;
48667;SDS011;34453;52.198;5.004;2023-05-15T05:11:20;26.55;;;20.10;;
48667;SDS011;34453;52.198;5.004;2023-05-15T05:13:46;22.75;;;18.55;;
48667;SDS011;34453;52.198;5.004;2023-05-15T05:16:11;21.27;;;19.00;;
48667;SDS011;34453;52.198;5.004;2023-05-15T05:18:37;25.05;;;21.88;;
48667;SDS011;34453;52.198;5.004;2023-05-15T05:21:03;34.13;;;24.45;;
48667;SDS011;34453;52.198;5.004;2023-05-15T05:23:29;24.67;;;20.85;;
48667;SDS011;34453;52.198;5.004;2023-05-15T05:25:54;27.48;;;20.45;;
48667;SDS011;34453;52.198;5.004;2023-05-15T05:28:20;24.08;;;20.50;;
48667;SDS011;34453;52.198;5.004;2023-05-15T05:30:46;27.77;;;22.38;;
48667;SDS011;34453;52.198;5.004;2023-05-15T05:33:12;24.85;;;21.73;;
48667;SDS011;34453;52.198;5.004;2023-05-15T05:35:39;27.65;;;24.13;;
48667;SDS011;34453;52.198;5.004;2023-05-15T05:38:04;23.95;;;21.50;;
48667;SDS011;34453;52.198;5.004;2023-05-15T05:40:30;27.42;;;22.10;;
48667;SDS011;34453;52.198;5.004;2023-05-15T05:42:59;27.75;;;22.25;;
48667;SDS011;34453;52.198;5.004;2023-05-15T05:45:25;27.35;;;23.60;;
48667;SDS011;34453;52.198;5.004;2023-05-15T05:47:50;27.77;;;24.00;;
48667;SDS011;34453;52.198;5.004;2023-05-15T05:50:16;29.17;;;23.80;;
48667;SDS011;34453;52.198;5.004;2023-05-15T05:52:41;25.90;;;22.35;;
48667;SDS011;34453;52.198;5.004;2023-05-15T05:55:07;30.10;;;24.30;;
48667;SDS011;34453;52.198;5.004;2023-05-15T05:57:33;28.05;;;23.52;;
48667;SDS011;34453;52.198;5.004;2023-05-15T05:59:59;26.13;;;23.33;;
48667;SDS011;34453;52.198;5.004;2023-05-15T06:02:25;31.50;;;23.83;;
48667;SDS011;34453;52.198;5.004;2023-05-15T06:04:54;31.05;;;25.15;;
48667;SDS011;34453;52.198;5.004;2023-05-15T06:07:20;33.35;;;23.67;;
48667;SDS011;34453;52.198;5.004;2023-05-15T06:09:45;29.90;;;22.77;;
48667;SDS011;34453;52.198;5.004;2023-05-15T06:12:12;31.25;;;23.85;;
48667;SDS011;34453;52.198;5.004;2023-05-15T06:14:38;29.60;;;23.85;;
48667;SDS011;34453;52.198;5.004;2023-05-15T06:17:04;26.73;;;22.98;;
48667;SDS011;34453;52.198;5.004;2023-05-15T06:19:30;28.35;;;22.20;;
48667;SDS011;34453;52.198;5.004;2023-05-15T06:21:55;27.65;;;22.25;;
48667;SDS011;34453;52.198;5.004;2023-05-15T06:24:21;26.05;;;23.08;;
48667;SDS011;34453;52.198;5.004;2023-05-15T06:26:47;32.65;;;21.50;;
48667;SDS011;34453;52.198;5.004;2023-05-15T06:29:12;25.83;;;21.35;;
48667;SDS011;34453;52.198;5.004;2023-05-15T06:31:38;25.45;;;20.92;;
48667;SDS011;34453;52.198;5.004;2023-05-15T06:34:03;24.60;;;21.20;;
48667;SDS011;34453;52.198;5.004;2023-05-15T06:36:29;22.45;;;19.92;;
48667;SDS011;34453;52.198;5.004;2023-05-15T06:38:54;26.60;;;20.10;;
48667;SDS011;34453;52.198;5.004;2023-05-15T06:41:20;30.85;;;22.48;;
48667;SDS011;34453;52.198;5.004;2023-05-15T06:43:45;26.50;;;21.90;;
48667;SDS011;34453;52.198;5.004;2023-05-15T06:46:11;22.92;;;20.42;;
48667;SDS011;34453;52.198;5.004;2023-05-15T06:48:40;26.23;;;19.52;;
48667;SDS011;34453;52.198;5.004;2023-05-15T06:51:05;21.92;;;19.10;;
48667;SDS011;34453;52.198;5.004;2023-05-15T06:53:31;21.80;;;19.45;;
48667;SDS011;34453;52.198;5.004;2023-05-15T06:55:57;23.58;;;18.30;;
48667;SDS011;34453;52.198;5.004;2023-05-15T06:58:22;23.13;;;19.25;;
48667;SDS011;34453;52.198;5.004;2023-05-15T07:00:50;22.35;;;17.88;;
48667;SDS011;34453;52.198;5.004;2023-05-15T07:03:16;21.50;;;18.80;;
48667;SDS011;34453;52.198;5.004;2023-05-15T07:05:41;26.83;;;19.50;;
48667;SDS011;34453;52.198;5.004;2023-05-15T07:08:07;24.77;;;19.05;;
48667;SDS011;34453;52.198;5.004;2023-05-15T07:10:32;24.88;;;19.67;;
48667;SDS011;34453;52.198;5.004;2023-05-15T07:12:58;20.27;;;17.83;;
48667;SDS011;34453;52.198;5.004;2023-05-15T07:15:23;21.38;;;16.70;;
48667;SDS011;34453;52.198;5.004;2023-05-15T07:17:49;21.15;;;16.88;;
48667;SDS011;34453;52.198;5.004;2023-05-15T07:20:15;21.13;;;17.33;;
48667;SDS011;34453;52.198;5.004;2023-05-15T07:22:41;18.88;;;16.88;;
48667;SDS011;34453;52.198;5.004;2023-05-15T07:25:06;22.77;;;17.10;;
48667;SDS011;34453;52.198;5.004;2023-05-15T07:27:32;17.98;;;16.08;;
48667;SDS011;34453;52.198;5.004;2023-05-15T07:29:57;23.70;;;18.95;;
48667;SDS011;34453;52.198;5.004;2023-05-15T07:32:23;23.70;;;17.42;;
48667;SDS011;34453;52.198;5.004;2023-05-15T07:34:52;25.25;;;18.30;;
48667;SDS011;34453;52.198;5.004;2023-05-15T07:37:17;21.52;;;18.98;;
48667;SDS011;34453;52.198;5.004;2023-05-15T07:39:43;20.02;;;17.92;;
48667;SDS011;34453;52.198;5.004;2023-05-15T07:42:08;23.80;;;20.05;;
48667;SDS011;34453;52.198;5.004;2023-05-15T07:44:34;23.60;;;19.70;;
48667;SDS011;34453;52.198;5.004;2023-05-15T07:46:59;25.10;;;19.48;;
48667;SDS011;34453;52.198;5.004;2023-05-15T07:49:24;23.30;;;19.30;;
48667;SDS011;34453;52.198;5.004;2023-05-15T07:51:50;23.27;;;19.25;;
48667;SDS011;34453;52.198;5.004;2023-05-15T07:54:15;27.90;;;20.95;;
48667;SDS011;34453;52.198;5.004;2023-05-15T07:56:41;25.05;;;21.08;;
48667;SDS011;34453;52.198;5.004;2023-05-15T07:59:06;27.40;;;20.65;;
48667;SDS011;34453;52.198;5.004;2023-05-15T08:01:32;22.65;;;19.35;;
48667;SDS011;34453;52.198;5.004;2023-05-15T08:03:57;26.83;;;21.70;;
48667;SDS011;34453;52.198;5.004;2023-05-15T08:06:23;36.35;;;24.23;;
48667;SDS011;34453;52.198;5.004;2023-05-15T08:08:48;32.65;;;24.52;;
48667;SDS011;34453;52.198;5.004;2023-05-15T08:11:14;34.17;;;26.40;;
48667;SDS011;34453;52.198;5.004;2023-05-15T08:13:39;34.17;;;25.52;;
48667;SDS011;34453;52.198;5.004;2023-05-15T08:16:05;41.38;;;29.50;;
48667;SDS011;34453;52.198;5.004;2023-05-15T08:18:30;40.67;;;29.10;;
48667;SDS011;34453;52.198;5.004;2023-05-15T08:20:56;39.67;;;27.05;;
48667;SDS011;34453;52.198;5.004;2023-05-15T08:23:21;44.47;;;31.08;;
48667;SDS011;34453;52.198;5.004;2023-05-15T08:25:47;47.78;;;32.58;;
48667;SDS011;34453;52.198;5.004;2023-05-15T08:28:12;51.67;;;32.22;;
48667;SDS011;34453;52.198;5.004;2023-05-15T08:30:38;47.78;;;31.20;;
48667;SDS011;34453;52.198;5.004;2023-05-15T08:33:03;45.70;;;31.70;;
48667;SDS011;34453;52.198;5.004;2023-05-15T08:35:28;46.85;;;31.77;;
48667;SDS011;34453;52.198;5.004;2023-05-15T08:37:54;44.20;;;30.27;;
48667;SDS011;34453;52.198;5.004;2023-05-15T08:40:21;44.65;;;32.08;;
48667;SDS011;34453;52.198;5.004;2023-05-15T08:42:47;42.05;;;31.10;;
48667;SDS011;34453;52.198;5.004;2023-05-15T08:45:16;44.80;;;30.73;;
48667;SDS011;34453;52.198;5.004;2023-05-15T08:47:43;40.83;;;28.35;;
48667;SDS011;34453;52.198;5.004;2023-05-15T08:50:12;36.38;;;29.13;;
48667;SDS011;34453;52.198;5.004;2023-05-15T08:52:42;43.13;;;29.58;;
48667;SDS011;34453;52.198;5.004;2023-05-15T08:55:12;38.88;;;29.10;;
48667;SDS011;34453;52.198;5.004;2023-05-15T08:57:39;33.92;;;26.63;;
48667;SDS011;34453;52.198;5.004;2023-05-15T09:00:05;35.65;;;24.35;;
48667;SDS011;34453;52.198;5.004;2023-05-15T09:02:36;35.72;;;26.45;;
48667;SDS011;34453;52.198;5.004;2023-05-15T09:05:03;37.17;;;24.35;;
48667;SDS011;34453;52.198;5.004;2023-05-15T09:07:30;40.22;;;25.40;;
48667;SDS011;34453;52.198;5.004;2023-05-15T09:09:56;36.22;;;25.55;;
48667;SDS011;34453;52.198;5.004;2023-05-15T09:12:23;33.97;;;23.42;;
48667;SDS011;34453;52.198;5.004;2023-05-15T09:14:49;33.53;;;24.55;;
48667;SDS011;34453;52.198;5.004;2023-05-15T09:17:15;34.25;;;24.35;;
48667;SDS011;34453;52.198;5.004;2023-05-15T09:19:41;38.75;;;25.38;;
48667;SDS011;34453;52.198;5.004;2023-05-15T09:22:28;34.63;;;23.92;;
48667;SDS011;34453;52.198;5.004;2023-05-15T09:24:57;30.80;;;23.00;;
48667;SDS011;34453;52.198;5.004;2023-05-15T09:27:23;32.95;;;24.20;;
48667;SDS011;34453;52.198;5.004;2023-05-15T09:29:48;32.90;;;24.13;;
48667;SDS011;34453;52.198;5.004;2023-05-15T09:32:18;33.90;;;23.45;;
48667;SDS011;34453;52.198;5.004;2023-05-15T09:34:44;33.05;;;24.27;;
48667;SDS011;34453;52.198;5.004;2023-05-15T09:37:26;32.95;;;23.05;;
48667;SDS011;34453;52.198;5.004;2023-05-15T09:39:53;33.53;;;24.85;;
48667;SDS011;34453;52.198;5.004;2023-05-15T09:42:18;42.17;;;27.65;;
48667;SDS011;34453;52.198;5.004;2023-05-15T09:44:44;42.40;;;28.58;;
48667;SDS011;34453;52.198;5.004;2023-05-15T09:47:13;42.72;;;30.05;;
48667;SDS011;34453;52.198;5.004;2023-05-15T09:49:42;49.40;;;31.15;;
48667;SDS011;34453;52.198;5.004;2023-05-15T09:52:09;40.45;;;30.48;;
48667;SDS011;34453;52.198;5.004;2023-05-15T09:54:35;45.05;;;30.48;;
48667;SDS011;34453;52.198;5.004;2023-05-15T09:57:10;40.05;;;29.73;;
48667;SDS011;34453;52.198;5.004;2023-05-15T09:59:44;39.90;;;28.27;;
48667;SDS011;34453;52.198;5.004;2023-05-15T10:02:30;40.33;;;27.92;;
48667;SDS011;34453;52.198;5.004;2023-05-15T10:04:56;40.63;;;28.92;;
48667;SDS011;34453;52.198;5.004;2023-05-15T10:07:41;38.70;;;28.55;;
48667;SDS011;34453;52.198;5.004;2023-05-15T10:10:06;40.97;;;29.58;;
48667;SDS011;34453;52.198;5.004;2023-05-15T10:12:32;41.28;;;27.92;;
48667;SDS011;34453;52.198;5.004;2023-05-15T10:15:00;43.22;;;31.45;;
48667;SDS011;34453;52.198;5.004;2023-05-15T10:17:27;43.20;;;32.55;;
48667;SDS011;34453;52.198;5.004;2023-05-15T10:19:56;47.08;;;31.63;;
48667;SDS011;34453;52.198;5.004;2023-05-15T10:22:25;39.10;;;29.08;;
48667;SDS011;34453;52.198;5.004;2023-05-15T10:25:01;50.05;;;32.22;;
48667;SDS011;34453;52.198;5.004;2023-05-15T10:27:32;35.72;;;28.52;;
48667;SDS011;34453;52.198;5.004;2023-05-15T10:29:59;40.38;;;28.27;;
48667;SDS011;34453;52.198;5.004;2023-05-15T10:32:27;36.35;;;27.15;;
48667;SDS011;34453;52.198;5.004;2023-05-15T10:34:53;36.10;;;26.13;;
48667;SDS011;34453;52.198;5.004;2023-05-15T10:37:20;34.15;;;26.10;;
48667;SDS011;34453;52.198;5.004;2023-05-15T10:39:47;41.85;;;27.20;;
48667;SDS011;34453;52.198;5.004;2023-05-15T10:42:13;36.20;;;26.42;;
48667;SDS011;34453;52.198;5.004;2023-05-15T10:44:40;36.38;;;27.10;;
48667;SDS011;34453;52.198;5.004;2023-05-15T10:47:06;33.40;;;26.80;;
48667;SDS011;34453;52.198;5.004;2023-05-15T10:49:32;27.30;;;21.75;;
48667;SDS011;34453;52.198;5.004;2023-05-15T10:52:00;28.15;;;21.95;;
48667;SDS011;34453;52.198;5.004;2023-05-15T10:54:26;32.58;;;21.98;;
48667;SDS011;34453;52.198;5.004;2023-05-15T10:56:56;22.83;;;20.52;;
48667;SDS011;34453;52.198;5.004;2023-05-15T10:59:29;27.38;;;23.00;;
48667;SDS011;34453;52.198;5.004;2023-05-15T11:01:56;27.25;;;21.00;;
48667;SDS011;34453;52.198;5.004;2023-05-15T11:04:22;26.45;;;22.10;;
48667;SDS011;34453;52.198;5.004;2023-05-15T11:06:50;35.47;;;23.52;;
48667;SDS011;34453;52.198;5.004;2023-05-15T11:09:39;29.00;;;25.20;;
48667;SDS011;34453;52.198;5.004;2023-05-15T11:12:06;35.20;;;26.25;;
48667;SDS011;34453;52.198;5.004;2023-05-15T11:17:03;31.50;;;23.85;;
48667;SDS011;34453;52.198;5.004;2023-05-15T11:19:31;29.10;;;24.20;;
48667;SDS011;34453;52.198;5.004;2023-05-15T11:22:00;31.70;;;21.98;;
48667;SDS011;34453;52.198;5.004;2023-05-15T11:27:46;22.95;;;20.30;;
48667;SDS011;34453;52.198;5.004;2023-05-15T11:40:49;17.88;;;13.85;;
48667;SDS011;34453;52.198;5.004;2023-05-15T11:43:20;15.13;;;13.13;;
48667;SDS011;34453;52.198;5.004;2023-05-15T11:45:51;15.98;;;13.23;;
48667;SDS011;34453;52.198;5.004;2023-05-15T11:48:20;18.48;;;13.05;;
48667;SDS011;34453;52.198;5.004;2023-05-15T11:50:48;14.52;;;12.48;;
48667;SDS011;34453;52.198;5.004;2023-05-15T11:53:14;13.25;;;11.88;;
48667;SDS011;34453;52.198;5.004;2023-05-15T11:55:41;12.52;;;10.63;;
48667;SDS011;34453;52.198;5.004;2023-05-15T11:58:14;10.80;;;9.70;;
48667;SDS011;34453;52.198;5.004;2023-05-15T12:00:45;11.38;;;10.38;;
48667;SDS011;34453;52.198;5.004;2023-05-15T12:06:02;12.40;;;9.23;;
48667;SDS011;34453;52.198;5.004;2023-05-15T12:08:31;7.38;;;6.78;;
48667;SDS011;34453;52.198;5.004;2023-05-15T12:10:58;7.32;;;6.72;;
48667;SDS011;34453;52.198;5.004;2023-05-15T12:13:24;8.23;;;7.13;;
48667;SDS011;34453;52.198;5.004;2023-05-15T12:15:50;8.65;;;6.75;;
48667;SDS011;34453;52.198;5.004;2023-05-15T12:18:15;9.95;;;6.53;;
48667;SDS011;34453;52.198;5.004;2023-05-15T12:20:41;7.72;;;6.38;;
48667;SDS011;34453;52.198;5.004;2023-05-15T12:23:13;8.82;;;7.10;;
48667;SDS011;34453;52.198;5.004;2023-05-15T12:25:39;8.93;;;7.78;;
48667;SDS011;34453;52.198;5.004;2023-05-15T12:28:05;12.32;;;9.57;;
48667;SDS011;34453;52.198;5.004;2023-05-15T12:30:31;16.15;;;12.77;;
48667;SDS011;34453;52.198;5.004;2023-05-15T12:33:01;22.77;;;12.00;;
48667;SDS011;34453;52.198;5.004;2023-05-15T12:35:41;22.60;;;13.50;;
48667;SDS011;34453;52.198;5.004;2023-05-15T12:38:08;22.33;;;14.15;;
48667;SDS011;34453;52.198;5.004;2023-05-15T12:40:39;23.65;;;14.05;;
48667;SDS011;34453;52.198;5.004;2023-05-15T12:43:06;16.10;;;11.80;;
48667;SDS011;34453;52.198;5.004;2023-05-15T12:45:32;14.40;;;10.02;;
48667;SDS011;34453;52.198;5.004;2023-05-15T12:48:00;16.85;;;10.35;;
48667;SDS011;34453;52.198;5.004;2023-05-15T12:50:26;10.18;;;8.77;;
48667;SDS011;34453;52.198;5.004;2023-05-15T12:52:58;17.23;;;9.60;;
48667;SDS011;34453;52.198;5.004;2023-05-15T12:55:32;12.55;;;7.70;;
48667;SDS011;34453;52.198;5.004;2023-05-15T12:58:05;14.20;;;8.10;;
48667;SDS011;34453;52.198;5.004;2023-05-15T13:00:35;13.13;;;6.38;;
48667;SDS011;34453;52.198;5.004;2023-05-15T13:03:03;6.43;;;5.35;;
48667;SDS011;34453;52.198;5.004;2023-05-15T13:05:33;10.85;;;5.03;;
48667;SDS011;34453;52.198;5.004;2023-05-15T13:08:01;9.20;;;4.53;;
48667;SDS011;34453;52.198;5.004;2023-05-15T13:10:30;7.28;;;4.63;;
48667;SDS011;34453;52.198;5.004;2023-05-15T13:12:56;5.70;;;3.72;;
48667;SDS011;34453;52.198;5.004;2023-05-15T13:17:51;4.13;;;3.70;;
48667;SDS011;34453;52.198;5.004;2023-05-15T13:20:17;3.95;;;3.50;;
48667;SDS011;34453;52.198;5.004;2023-05-15T13:22:43;6.40;;;3.70;;
48667;SDS011;34453;52.198;5.004;2023-05-15T13:25:08;9.93;;;3.58;;
48667;SDS011;34453;52.198;5.004;2023-05-15T13:27:33;4.45;;;3.55;;
48667;SDS011;34453;52.198;5.004;2023-05-15T13:29:59;4.60;;;3.20;;
48667;SDS011;34453;52.198;5.004;2023-05-15T13:32:27;8.32;;;4.00;;
48667;SDS011;34453;52.198;5.004;2023-05-15T13:34:52;5.85;;;3.55;;
48667;SDS011;34453;52.198;5.004;2023-05-15T13:37:18;7.50;;;4.03;;
48667;SDS011;34453;52.198;5.004;2023-05-15T13:39:44;7.68;;;3.55;;
48667;SDS011;34453;52.198;5.004;2023-05-15T13:42:09;8.75;;;3.53;;
48667;SDS011;34453;52.198;5.004;2023-05-15T13:44:35;8.23;;;4.07;;
48667;SDS011;34453;52.198;5.004;2023-05-15T13:47:01;6.80;;;3.40;;
48667;SDS011;34453;52.198;5.004;2023-05-15T13:49:28;8.85;;;3.25;;
48667;SDS011;34453;52.198;5.004;2023-05-15T13:51:53;10.45;;;3.55;;
48667;SDS011;34453;52.198;5.004;2023-05-15T13:54:19;11.65;;;3.92;;
48667;SDS011;34453;52.198;5.004;2023-05-15T13:56:44;9.88;;;3.42;;
48667;SDS011;34453;52.198;5.004;2023-05-15T13:59:10;6.95;;;3.85;;
48667;SDS011;34453;52.198;5.004;2023-05-15T14:01:35;7.55;;;3.33;;
48667;SDS011;34453;52.198;5.004;2023-05-15T14:04:01;5.68;;;2.72;;
48667;SDS011;34453;52.198;5.004;2023-05-15T14:06:26;3.83;;;3.03;;
48667;SDS011;34453;52.198;5.004;2023-05-15T14:08:52;6.35;;;2.38;;
48667;SDS011;34453;52.198;5.004;2023-05-15T14:11:17;5.13;;;2.13;;
48667;SDS011;34453;52.198;5.004;2023-05-15T14:13:43;3.90;;;2.45;;
48667;SDS011;34453;52.198;5.004;2023-05-15T14:16:08;13.48;;;2.67;;
48667;SDS011;34453;52.198;5.004;2023-05-15T14:18:34;2.83;;;2.42;;
48667;SDS011;34453;52.198;5.004;2023-05-15T14:20:59;9.80;;;2.28;;
48667;SDS011;34453;52.198;5.004;2023-05-15T14:23:25;5.82;;;2.38;;
48667;SDS011;34453;52.198;5.004;2023-05-15T14:25:51;3.80;;;2.40;;
48667;SDS011;34453;52.198;5.004;2023-05-15T14:28:16;7.50;;;3.28;;
48667;SDS011;34453;52.198;5.004;2023-05-15T14:30:42;3.05;;;2.85;;
48667;SDS011;34453;52.198;5.004;2023-05-15T14:33:07;5.32;;;2.17;;
48667;SDS011;34453;52.198;5.004;2023-05-15T14:35:34;4.72;;;1.85;;
48667;SDS011;34453;52.198;5.004;2023-05-15T14:38:00;6.80;;;1.92;;
48667;SDS011;34453;52.198;5.004;2023-05-15T14:40:26;2.25;;;2.00;;
48667;SDS011;34453;52.198;5.004;2023-05-15T14:42:52;7.38;;;2.55;;
48667;SDS011;34453;52.198;5.004;2023-05-15T14:45:18;2.03;;;1.80;;
48667;SDS011;34453;52.198;5.004;2023-05-15T14:47:43;7.05;;;1.80;;
48667;SDS011;34453;52.198;5.004;2023-05-15T14:50:09;6.10;;;2.20;;
48667;SDS011;34453;52.198;5.004;2023-05-15T14:52:34;3.17;;;1.73;;
48667;SDS011;34453;52.198;5.004;2023-05-15T14:55:00;3.63;;;2.50;;
48667;SDS011;34453;52.198;5.004;2023-05-15T14:57:30;4.75;;;1.85;;
48667;SDS011;34453;52.198;5.004;2023-05-15T14:59:56;6.10;;;2.47;;
48667;SDS011;34453;52.198;5.004;2023-05-15T15:02:22;5.22;;;2.63;;
48667;SDS011;34453;52.198;5.004;2023-05-15T15:04:47;2.47;;;2.35;;
48667;SDS011;34453;52.198;5.004;2023-05-15T15:07:13;6.20;;;2.42;;